sensor_id;sensor_type;location;lat;lon;timestamp;pressure;altitude;pressure_sealevel;temperature;humidity
51460;BME280;37534;39.772;2.718;2023-05-08T00:01:48;101751.00;;;17.17;100.00
51460;BME280;37534;39.772;2.718;2023-05-08T00:04:14;101742.25;;;16.95;100.00
51460;BME280;37534;39.772;2.718;2023-05-08T00:06:40;101761.53;;;16.90;100.00
51460;BME280;37534;39.772;2.718;2023-05-08T00:09:05;101753.44;;;16.73;100.00
51460;BME280;37534;39.772;2.718;2023-05-08T00:11:31;101763.66;;;16.79;100.00
51460;BME280;37534;39.772;2.718;2023-05-08T00:13:56;101769.03;;;16.75;100.00
51460;BME280;37534;39.772;2.718;2023-05-08T00:16:22;101774.28;;;16.73;100.00
51460;BME280;37534;39.772;2.718;2023-05-08T00:18:47;101782.22;;;16.70;100.00
51460;BME280;37534;39.772;2.718;2023-05-08T00:21:13;101778.09;;;16.63;100.00
51460;BME280;37534;39.772;2.718;2023-05-08T00:23:38;101781.31;;;16.71;100.00
51460;BME280;37534;39.772;2.718;2023-05-08T00:26:04;101773.22;;;16.79;100.00
51460;BME280;37534;39.772;2.718;2023-05-08T00:28:29;101764.09;;;16.67;100.00
51460;BME280;37534;39.772;2.718;2023-05-08T00:30:58;101766.09;;;16.59;100.00
51460;BME280;37534;39.772;2.718;2023-05-08T00:33:24;101767.91;;;16.57;100.00
51460;BME280;37534;39.772;2.718;2023-05-08T00:35:49;101770.56;;;16.55;100.00
51460;BME280;37534;39.772;2.718;2023-05-08T00:38:15;101767.16;;;16.53;100.00
51460;BME280;37534;39.772;2.718;2023-05-08T00:40:41;101747.28;;;16.50;100.00
51460;BME280;37534;39.772;2.718;2023-05-08T00:43:07;101764.09;;;16.67;100.00
51460;BME280;37534;39.772;2.718;2023-05-08T00:45:35;101761.19;;;16.75;100.00
51460;BME280;37534;39.772;2.718;2023-05-08T00:48:02;101768.88;;;16.79;100.00
51460;BME280;37534;39.772;2.718;2023-05-08T00:50:29;101755.66;;;16.59;100.00
51460;BME280;37534;39.772;2.718;2023-05-08T00:52:55;101763.25;;;16.66;100.00
51460;BME280;37534;39.772;2.718;2023-05-08T00:55:21;101766.94;;;16.59;100.00
51460;BME280;37534;39.772;2.718;2023-05-08T00:57:47;101771.25;;;16.60;100.00
51460;BME280;37534;39.772;2.718;2023-05-08T01:00:15;101764.81;;;16.45;100.00
51460;BME280;37534;39.772;2.718;2023-05-08T01:02:42;101763.44;;;16.35;100.00
51460;BME280;37534;39.772;2.718;2023-05-08T01:05:08;101767.84;;;16.33;100.00
51460;BME280;37534;39.772;2.718;2023-05-08T01:07:33;101762.69;;;16.31;100.00
51460;BME280;37534;39.772;2.718;2023-05-08T01:09:59;101752.56;;;16.22;100.00
51460;BME280;37534;39.772;2.718;2023-05-08T01:13:04;101760.34;;;16.24;100.00
51460;BME280;37534;39.772;2.718;2023-05-08T01:15:40;101769.88;;;16.23;100.00
51460;BME280;37534;39.772;2.718;2023-05-08T01:18:20;101766.63;;;16.16;100.00
51460;BME280;37534;39.772;2.718;2023-05-08T01:21:20;101771.78;;;16.18;100.00
51460;BME280;37534;39.772;2.718;2023-05-08T01:34:40;101789.88;;;16.23;100.00
51460;BME280;37534;39.772;2.718;2023-05-08T01:37:16;101780.31;;;16.48;100.00
51460;BME280;37534;39.772;2.718;2023-05-08T01:39:49;101785.00;;;16.39;100.00
51460;BME280;37534;39.772;2.718;2023-05-08T01:42:57;101783.69;;;16.52;100.00
51460;BME280;37534;39.772;2.718;2023-05-08T01:45:38;101785.13;;;16.61;100.00
51460;BME280;37534;39.772;2.718;2023-05-08T01:48:07;101758.00;;;16.41;100.00
51460;BME280;37534;39.772;2.718;2023-05-08T01:50:39;101755.72;;;16.32;100.00
51460;BME280;37534;39.772;2.718;2023-05-08T01:53:12;101743.09;;;16.20;100.00
51460;BME280;37534;39.772;2.718;2023-05-08T01:55:42;101748.91;;;16.28;100.00
51460;BME280;37534;39.772;2.718;2023-05-08T01:58:09;101737.16;;;16.41;100.00
51460;BME280;37534;39.772;2.718;2023-05-08T02:00:38;101725.72;;;16.47;100.00
51460;BME280;37534;39.772;2.718;2023-05-08T02:03:05;101733.56;;;16.45;100.00
51460;BME280;37534;39.772;2.718;2023-05-08T02:05:35;101734.25;;;16.50;100.00
51460;BME280;37534;39.772;2.718;2023-05-08T02:08:02;101733.72;;;16.66;100.00
51460;BME280;37534;39.772;2.718;2023-05-08T02:10:29;101734.94;;;16.56;100.00
51460;BME280;37534;39.772;2.718;2023-05-08T02:12:55;101734.25;;;16.50;100.00
51460;BME280;37534;39.772;2.718;2023-05-08T02:15:24;101728.31;;;16.47;100.00
51460;BME280;37534;39.772;2.718;2023-05-08T02:17:53;101723.03;;;16.48;100.00
51460;BME280;37534;39.772;2.718;2023-05-08T02:20:20;101718.69;;;16.49;100.00
51460;BME280;37534;39.772;2.718;2023-05-08T02:22:49;101732.91;;;16.64;100.00
51460;BME280;37534;39.772;2.718;2023-05-08T02:25:16;101722.78;;;16.56;100.00
51460;BME280;37534;39.772;2.718;2023-05-08T02:27:47;101733.44;;;16.48;100.00
51460;BME280;37534;39.772;2.718;2023-05-08T02:30:14;101734.41;;;16.46;100.00
51460;BME280;37534;39.772;2.718;2023-05-08T02:32:45;101728.47;;;16.42;100.00
51460;BME280;37534;39.772;2.718;2023-05-08T02:35:16;101707.94;;;16.33;100.00
51460;BME280;37534;39.772;2.718;2023-05-08T02:37:47;101723.16;;;16.45;100.00
51460;BME280;37534;39.772;2.718;2023-05-08T02:40:15;101714.75;;;16.37;100.00
51460;BME280;37534;39.772;2.718;2023-05-08T02:42:42;101716.66;;;16.32;100.00
51460;BME280;37534;39.772;2.718;2023-05-08T02:45:08;101723.75;;;16.27;100.00
51460;BME280;37534;39.772;2.718;2023-05-08T02:53:02;101714.50;;;16.18;100.00
51460;BME280;37534;39.772;2.718;2023-05-08T02:58:23;101730.38;;;16.10;100.00
51460;BME280;37534;39.772;2.718;2023-05-08T03:01:10;101724.66;;;16.01;100.00
51460;BME280;37534;39.772;2.718;2023-05-08T03:03:43;101728.41;;;15.92;100.00
51460;BME280;37534;39.772;2.718;2023-05-08T03:06:19;101734.44;;;15.92;100.00
51460;BME280;37534;39.772;2.718;2023-05-08T03:08:49;101726.59;;;15.94;100.00
51460;BME280;37534;39.772;2.718;2023-05-08T03:11:21;101737.00;;;15.94;100.00
51460;BME280;37534;39.772;2.718;2023-05-08T03:13:50;101721.88;;;15.78;100.00
51460;BME280;37534;39.772;2.718;2023-05-08T03:16:22;101727.09;;;16.05;100.00
51460;BME280;37534;39.772;2.718;2023-05-08T03:18:55;101727.00;;;16.08;100.00
51460;BME280;37534;39.772;2.718;2023-05-08T03:21:25;101730.41;;;15.82;100.00
51460;BME280;37534;39.772;2.718;2023-05-08T03:23:53;101736.03;;;15.68;100.00
51460;BME280;37534;39.772;2.718;2023-05-08T03:26:20;101740.72;;;15.57;100.00
51460;BME280;37534;39.772;2.718;2023-05-08T03:28:50;101738.03;;;15.60;100.00
51460;BME280;37534;39.772;2.718;2023-05-08T03:31:18;101743.09;;;15.63;100.00
51460;BME280;37534;39.772;2.718;2023-05-08T03:33:48;101739.25;;;15.48;100.00
51460;BME280;37534;39.772;2.718;2023-05-08T03:36:15;101732.84;;;15.30;100.00
51460;BME280;37534;39.772;2.718;2023-05-08T03:38:42;101745.16;;;15.24;100.00
51460;BME280;37534;39.772;2.718;2023-05-08T03:41:07;101758.81;;;15.32;100.00
51460;BME280;37534;39.772;2.718;2023-05-08T03:43:35;101759.16;;;15.19;100.00
51460;BME280;37534;39.772;2.718;2023-05-08T03:46:01;101761.88;;;15.15;100.00
51460;BME280;37534;39.772;2.718;2023-05-08T03:48:31;101749.59;;;15.50;100.00
51460;BME280;37534;39.772;2.718;2023-05-08T03:51:01;101753.88;;;15.51;100.00
51460;BME280;37534;39.772;2.718;2023-05-08T03:53:28;101750.97;;;15.33;100.00
51460;BME280;37534;39.772;2.718;2023-05-08T03:55:56;101735.78;;;15.18;100.00
51460;BME280;37534;39.772;2.718;2023-05-08T03:58:27;101752.03;;;15.26;100.00
51460;BME280;37534;39.772;2.718;2023-05-08T04:06:06;101747.16;;;15.44;100.00
51460;BME280;37534;39.772;2.718;2023-05-08T04:08:40;101745.00;;;15.30;100.00
51460;BME280;37534;39.772;2.718;2023-05-08T04:11:30;101739.97;;;15.24;100.00
51460;BME280;37534;39.772;2.718;2023-05-08T04:14:03;101750.34;;;15.24;100.00
51460;BME280;37534;39.772;2.718;2023-05-08T04:16:36;101748.97;;;15.12;100.00
51460;BME280;37534;39.772;2.718;2023-05-08T04:19:08;101755.88;;;15.13;100.00
51460;BME280;37534;39.772;2.718;2023-05-08T04:21:35;101748.47;;;15.29;100.00
51460;BME280;37534;39.772;2.718;2023-05-08T04:24:06;101750.31;;;15.25;100.00
51460;BME280;37534;39.772;2.718;2023-05-08T04:26:32;101759.91;;;15.23;100.00
51460;BME280;37534;39.772;2.718;2023-05-08T04:28:59;101747.50;;;15.03;100.00
51460;BME280;37534;39.772;2.718;2023-05-08T04:31:26;101742.50;;;14.95;100.00
51460;BME280;37534;39.772;2.718;2023-05-08T04:33:53;101741.53;;;14.99;100.00
51460;BME280;37534;39.772;2.718;2023-05-08T04:36:18;101750.28;;;14.95;100.00
51460;BME280;37534;39.772;2.718;2023-05-08T04:38:44;101746.72;;;14.99;100.00
51460;BME280;37534;39.772;2.718;2023-05-08T04:41:10;101748.41;;;15.00;100.00
51460;BME280;37534;39.772;2.718;2023-05-08T04:43:35;101754.75;;;14.90;100.00
51460;BME280;37534;39.772;2.718;2023-05-08T04:46:03;101752.34;;;14.84;100.00
51460;BME280;37534;39.772;2.718;2023-05-08T04:48:30;101738.88;;;15.01;100.00
51460;BME280;37534;39.772;2.718;2023-05-08T04:50:58;101749.47;;;14.93;100.00
51460;BME280;37534;39.772;2.718;2023-05-08T04:53:23;101746.41;;;14.79;100.00
51460;BME280;37534;39.772;2.718;2023-05-08T04:55:49;101751.78;;;14.73;100.00
51460;BME280;37534;39.772;2.718;2023-05-08T04:58:14;101757.88;;;14.72;100.00
51460;BME280;37534;39.772;2.718;2023-05-08T05:00:40;101746.66;;;14.70;100.00
51460;BME280;37534;39.772;2.718;2023-05-08T05:03:05;101752.59;;;14.75;100.00
51460;BME280;37534;39.772;2.718;2023-05-08T05:05:31;101763.50;;;14.88;100.00
51460;BME280;37534;39.772;2.718;2023-05-08T05:07:56;101769.28;;;14.97;100.00
51460;BME280;37534;39.772;2.718;2023-05-08T05:10:22;101754.00;;;14.87;100.00
51460;BME280;37534;39.772;2.718;2023-05-08T05:12:47;101750.81;;;14.77;100.00
51460;BME280;37534;39.772;2.718;2023-05-08T05:15:13;101750.47;;;14.89;100.00
51460;BME280;37534;39.772;2.718;2023-05-08T05:17:38;101755.81;;;14.83;100.00
51460;BME280;37534;39.772;2.718;2023-05-08T05:20:05;101750.06;;;14.72;100.00
51460;BME280;37534;39.772;2.718;2023-05-08T05:22:31;101764.06;;;14.66;100.00
51460;BME280;37534;39.772;2.718;2023-05-08T05:24:57;101750.44;;;14.58;100.00
51460;BME280;37534;39.772;2.718;2023-05-08T05:27:23;101754.53;;;14.67;100.00
51460;BME280;37534;39.772;2.718;2023-05-08T05:29:49;101763.59;;;14.83;100.00
51460;BME280;37534;39.772;2.718;2023-05-08T05:32:15;101769.06;;;14.74;100.00
51460;BME280;37534;39.772;2.718;2023-05-08T05:34:40;101762.28;;;14.68;100.00
51460;BME280;37534;39.772;2.718;2023-05-08T05:37:06;101752.91;;;14.62;100.00
51460;BME280;37534;39.772;2.718;2023-05-08T05:39:32;101761.44;;;14.68;100.00
51460;BME280;37534;39.772;2.718;2023-05-08T05:41:57;101758.84;;;14.68;100.00
51460;BME280;37534;39.772;2.718;2023-05-08T05:44:23;101763.72;;;14.80;100.00
51460;BME280;37534;39.772;2.718;2023-05-08T05:46:48;101763.75;;;14.78;100.00
51460;BME280;37534;39.772;2.718;2023-05-08T05:49:14;101761.19;;;14.77;100.00
51460;BME280;37534;39.772;2.718;2023-05-08T05:51:40;101769.63;;;14.85;100.00
51460;BME280;37534;39.772;2.718;2023-05-08T05:54:05;101766.22;;;14.83;100.00
51460;BME280;37534;39.772;2.718;2023-05-08T05:56:31;101777.22;;;14.93;100.00
51460;BME280;37534;39.772;2.718;2023-05-08T05:58:57;101766.66;;;14.99;100.00
51460;BME280;37534;39.772;2.718;2023-05-08T06:01:22;101774.13;;;15.10;100.00
51460;BME280;37534;39.772;2.718;2023-05-08T06:03:49;101789.13;;;15.31;100.00
51460;BME280;37534;39.772;2.718;2023-05-08T06:06:14;101775.09;;;15.38;100.00
51460;BME280;37534;39.772;2.718;2023-05-08T06:08:40;101782.34;;;15.57;100.00
51460;BME280;37534;39.772;2.718;2023-05-08T06:11:05;101782.72;;;15.74;100.00
51460;BME280;37534;39.772;2.718;2023-05-08T06:13:31;101781.25;;;15.94;100.00
51460;BME280;37534;39.772;2.718;2023-05-08T06:15:57;101788.97;;;16.24;100.00
51460;BME280;37534;39.772;2.718;2023-05-08T06:18:22;101793.75;;;16.36;100.00
51460;BME280;37534;39.772;2.718;2023-05-08T06:20:48;101784.16;;;16.38;100.00
51460;BME280;37534;39.772;2.718;2023-05-08T06:23:14;101782.78;;;16.53;100.00
51460;BME280;37534;39.772;2.718;2023-05-08T06:25:39;101773.88;;;16.60;100.00
51460;BME280;37534;39.772;2.718;2023-05-08T06:28:05;101785.72;;;16.69;100.00
51460;BME280;37534;39.772;2.718;2023-05-08T06:30:33;101796.56;;;16.82;100.00
51460;BME280;37534;39.772;2.718;2023-05-08T06:32:58;101790.81;;;16.99;100.00
51460;BME280;37534;39.772;2.718;2023-05-08T06:35:24;101779.31;;;17.04;100.00
51460;BME280;37534;39.772;2.718;2023-05-08T06:37:50;101790.72;;;17.25;100.00
51460;BME280;37534;39.772;2.718;2023-05-08T06:40:15;101783.38;;;17.35;100.00
51460;BME280;37534;39.772;2.718;2023-05-08T06:42:41;101783.75;;;17.48;100.00
51460;BME280;37534;39.772;2.718;2023-05-08T06:45:09;101787.31;;;17.69;100.00
51460;BME280;37534;39.772;2.718;2023-05-08T06:47:35;101795.25;;;17.90;100.00
51460;BME280;37534;39.772;2.718;2023-05-08T06:50:01;101799.00;;;18.04;100.00
51460;BME280;37534;39.772;2.718;2023-05-08T06:52:26;101781.28;;;18.13;100.00
51460;BME280;37534;39.772;2.718;2023-05-08T06:54:52;101796.34;;;18.28;100.00
51460;BME280;37534;39.772;2.718;2023-05-08T06:57:17;101793.84;;;18.46;100.00
51460;BME280;37534;39.772;2.718;2023-05-08T06:59:43;101790.59;;;18.61;100.00
51460;BME280;37534;39.772;2.718;2023-05-08T07:02:09;101800.19;;;18.81;100.00
51460;BME280;37534;39.772;2.718;2023-05-08T07:04:35;101805.09;;;19.09;100.00
51460;BME280;37534;39.772;2.718;2023-05-08T07:07:01;101788.06;;;19.19;100.00
51460;BME280;37534;39.772;2.718;2023-05-08T07:09:26;101805.16;;;19.47;100.00
51460;BME280;37534;39.772;2.718;2023-05-08T07:11:52;101801.59;;;19.48;100.00
51460;BME280;37534;39.772;2.718;2023-05-08T07:14:17;101791.31;;;19.63;100.00
51460;BME280;37534;39.772;2.718;2023-05-08T07:16:43;101812.09;;;19.86;100.00
51460;BME280;37534;39.772;2.718;2023-05-08T07:19:08;101807.56;;;20.07;100.00
51460;BME280;37534;39.772;2.718;2023-05-08T07:21:34;101804.19;;;20.23;100.00
51460;BME280;37534;39.772;2.718;2023-05-08T07:24:00;101809.25;;;20.45;100.00
51460;BME280;37534;39.772;2.718;2023-05-08T07:26:25;101805.72;;;20.63;100.00
51460;BME280;37534;39.772;2.718;2023-05-08T07:28:51;101803.50;;;20.89;100.00
51460;BME280;37534;39.772;2.718;2023-05-08T07:31:21;101804.22;;;21.08;100.00
51460;BME280;37534;39.772;2.718;2023-05-08T07:33:46;101813.91;;;21.24;100.00
51460;BME280;37534;39.772;2.718;2023-05-08T07:36:12;101813.69;;;21.44;100.00
51460;BME280;37534;39.772;2.718;2023-05-08T07:38:38;101802.13;;;21.49;100.00
51460;BME280;37534;39.772;2.718;2023-05-08T07:41:03;101800.41;;;21.63;100.00
51460;BME280;37534;39.772;2.718;2023-05-08T07:43:30;101816.53;;;21.73;100.00
51460;BME280;37534;39.772;2.718;2023-05-08T07:45:56;101817.53;;;21.87;100.00
51460;BME280;37534;39.772;2.718;2023-05-08T07:48:21;101816.13;;;22.11;100.00
51460;BME280;37534;39.772;2.718;2023-05-08T07:50:50;101801.38;;;22.25;100.00
51460;BME280;37534;39.772;2.718;2023-05-08T07:53:16;101795.50;;;22.35;100.00
51460;BME280;37534;39.772;2.718;2023-05-08T07:55:41;101791.28;;;22.47;100.00
51460;BME280;37534;39.772;2.718;2023-05-08T07:58:07;101791.72;;;22.70;100.00
51460;BME280;37534;39.772;2.718;2023-05-08T08:00:34;101788.16;;;22.71;100.00
51460;BME280;37534;39.772;2.718;2023-05-08T08:02:59;101789.41;;;22.80;100.00
51460;BME280;37534;39.772;2.718;2023-05-08T08:05:25;101790.97;;;22.82;100.00
51460;BME280;37534;39.772;2.718;2023-05-08T08:07:50;101786.84;;;22.78;100.00
51460;BME280;37534;39.772;2.718;2023-05-08T08:10:16;101790.06;;;22.83;100.00
51460;BME280;37534;39.772;2.718;2023-05-08T08:12:42;101798.50;;;22.88;100.00
51460;BME280;37534;39.772;2.718;2023-05-08T08:15:07;101793.03;;;22.77;100.00
51460;BME280;37534;39.772;2.718;2023-05-08T08:17:33;101801.97;;;22.89;100.00
51460;BME280;37534;39.772;2.718;2023-05-08T08:19:59;101786.19;;;22.89;100.00
51460;BME280;37534;39.772;2.718;2023-05-08T08:22:25;101792.28;;;23.04;100.00
51460;BME280;37534;39.772;2.718;2023-05-08T08:24:51;101791.53;;;23.02;100.00
51460;BME280;37534;39.772;2.718;2023-05-08T08:27:16;101782.94;;;23.14;100.00
51460;BME280;37534;39.772;2.718;2023-05-08T08:29:42;101788.34;;;23.25;100.00
51460;BME280;37534;39.772;2.718;2023-05-08T08:32:07;101792.06;;;23.50;97.79
51460;BME280;37534;39.772;2.718;2023-05-08T08:34:34;101793.00;;;23.63;98.37
51460;BME280;37534;39.772;2.718;2023-05-08T08:36:59;101792.00;;;23.79;95.63
51460;BME280;37534;39.772;2.718;2023-05-08T08:39:25;101797.59;;;24.01;94.54
51460;BME280;37534;39.772;2.718;2023-05-08T08:41:50;101800.16;;;24.16;93.59
51460;BME280;37534;39.772;2.718;2023-05-08T08:44:16;101795.97;;;24.26;92.60
51460;BME280;37534;39.772;2.718;2023-05-08T08:46:49;101794.06;;;24.28;92.39
51460;BME280;37534;39.772;2.718;2023-05-08T08:49:28;101793.34;;;24.26;91.71
51460;BME280;37534;39.772;2.718;2023-05-08T08:51:58;101799.16;;;24.31;92.77
51460;BME280;37534;39.772;2.718;2023-05-08T08:54:28;101808.81;;;24.18;92.54
51460;BME280;37534;39.772;2.718;2023-05-08T08:56:56;101806.81;;;24.21;92.35
51460;BME280;37534;39.772;2.718;2023-05-08T08:59:26;101803.13;;;24.24;91.74
51460;BME280;37534;39.772;2.718;2023-05-08T09:01:55;101807.09;;;24.57;91.73
51460;BME280;37534;39.772;2.718;2023-05-08T09:04:23;101807.25;;;24.68;89.69
51460;BME280;37534;39.772;2.718;2023-05-08T09:06:52;101805.22;;;24.84;88.84
51460;BME280;37534;39.772;2.718;2023-05-08T09:09:18;101806.28;;;24.82;88.49
51460;BME280;37534;39.772;2.718;2023-05-08T09:11:45;101809.97;;;24.66;87.35
51460;BME280;37534;39.772;2.718;2023-05-08T09:14:10;101798.13;;;24.46;88.85
51460;BME280;37534;39.772;2.718;2023-05-08T09:16:36;101813.03;;;24.60;88.33
51460;BME280;37534;39.772;2.718;2023-05-08T09:19:02;101817.91;;;24.66;88.77
51460;BME280;37534;39.772;2.718;2023-05-08T09:21:28;101801.31;;;24.77;87.66
51460;BME280;37534;39.772;2.718;2023-05-08T09:23:58;101815.13;;;24.94;88.71
51460;BME280;37534;39.772;2.718;2023-05-08T09:26:34;101819.88;;;24.89;88.07
51460;BME280;37534;39.772;2.718;2023-05-08T09:31:45;101826.91;;;25.52;83.77
51460;BME280;37534;39.772;2.718;2023-05-08T09:34:24;101827.50;;;25.32;82.91
51460;BME280;37534;39.772;2.718;2023-05-08T09:36:52;101811.72;;;25.17;82.02
51460;BME280;37534;39.772;2.718;2023-05-08T09:39:23;101833.16;;;25.38;81.07
51460;BME280;37534;39.772;2.718;2023-05-08T09:41:59;101830.78;;;25.59;81.53
51460;BME280;37534;39.772;2.718;2023-05-08T09:44:25;101830.84;;;25.47;81.70
51460;BME280;37534;39.772;2.718;2023-05-08T09:46:51;101829.53;;;25.52;80.09
51460;BME280;37534;39.772;2.718;2023-05-08T09:49:33;101843.47;;;25.67;79.78
51460;BME280;37534;39.772;2.718;2023-05-08T09:51:58;101843.94;;;25.48;79.12
51460;BME280;37534;39.772;2.718;2023-05-08T09:54:24;101845.03;;;25.70;78.07
51460;BME280;37534;39.772;2.718;2023-05-08T09:56:50;101851.97;;;26.08;77.18
51460;BME280;37534;39.772;2.718;2023-05-08T09:59:26;101851.63;;;26.36;75.33
51460;BME280;37534;39.772;2.718;2023-05-08T10:01:52;101841.84;;;26.61;74.37
51460;BME280;37534;39.772;2.718;2023-05-08T10:04:35;101845.25;;;26.74;73.14
51460;BME280;37534;39.772;2.718;2023-05-08T10:07:01;101847.44;;;26.92;70.45
51460;BME280;37534;39.772;2.718;2023-05-08T10:09:27;101851.44;;;27.20;70.28
51460;BME280;37534;39.772;2.718;2023-05-08T10:11:53;101846.47;;;27.49;67.15
51460;BME280;37534;39.772;2.718;2023-05-08T10:14:23;101851.09;;;27.80;66.35
51460;BME280;37534;39.772;2.718;2023-05-08T10:16:50;101853.94;;;27.44;67.37
51460;BME280;37534;39.772;2.718;2023-05-08T10:19:22;101842.63;;;27.08;67.84
51460;BME280;37534;39.772;2.718;2023-05-08T10:21:51;101838.19;;;26.86;68.88
51460;BME280;37534;39.772;2.718;2023-05-08T10:24:17;101849.97;;;27.16;69.54
51460;BME280;37534;39.772;2.718;2023-05-08T10:27:19;101852.03;;;27.35;68.03
51460;BME280;37534;39.772;2.718;2023-05-08T10:29:53;101854.22;;;27.41;67.32
51460;BME280;37534;39.772;2.718;2023-05-08T10:32:19;101848.19;;;27.50;67.15
51460;BME280;37534;39.772;2.718;2023-05-08T10:34:50;101842.38;;;27.57;65.64
51460;BME280;37534;39.772;2.718;2023-05-08T10:37:16;101843.09;;;27.25;66.74
51460;BME280;37534;39.772;2.718;2023-05-08T10:39:43;101839.25;;;27.52;66.21
51460;BME280;37534;39.772;2.718;2023-05-08T10:42:11;101829.53;;;27.84;65.82
51460;BME280;37534;39.772;2.718;2023-05-08T10:44:37;101833.06;;;27.74;66.42
51460;BME280;37534;39.772;2.718;2023-05-08T10:50:00;101840.69;;;27.44;66.43
51460;BME280;37534;39.772;2.718;2023-05-08T10:58:10;101843.81;;;26.70;69.19
51460;BME280;37534;39.772;2.718;2023-05-08T11:03:22;101831.31;;;26.95;68.13
51460;BME280;37534;39.772;2.718;2023-05-08T11:05:51;101835.16;;;27.13;68.31
51460;BME280;37534;39.772;2.718;2023-05-08T11:08:19;101847.09;;;27.85;65.48
51460;BME280;37534;39.772;2.718;2023-05-08T11:13:49;101831.28;;;27.63;65.31
51460;BME280;37534;39.772;2.718;2023-05-08T11:16:14;101827.59;;;27.86;62.84
51460;BME280;37534;39.772;2.718;2023-05-08T11:19:15;101828.03;;;28.03;64.25
51460;BME280;37534;39.772;2.718;2023-05-08T11:24:40;101821.63;;;28.59;60.05
51460;BME280;37534;39.772;2.718;2023-05-08T11:27:05;101825.63;;;28.53;60.82
51460;BME280;37534;39.772;2.718;2023-05-08T11:29:31;101822.22;;;28.51;61.66
51460;BME280;37534;39.772;2.718;2023-05-08T11:31:57;101809.59;;;28.01;61.63
51460;BME280;37534;39.772;2.718;2023-05-08T11:37:16;101816.03;;;26.99;66.87
51460;BME280;37534;39.772;2.718;2023-05-08T11:39:42;101806.50;;;27.30;66.93
51460;BME280;37534;39.772;2.718;2023-05-08T11:45:06;101797.28;;;27.68;65.34
51460;BME280;37534;39.772;2.718;2023-05-08T11:47:38;101802.88;;;28.18;65.84
51460;BME280;37534;39.772;2.718;2023-05-08T11:50:04;101810.28;;;28.36;64.23
51460;BME280;37534;39.772;2.718;2023-05-08T11:52:53;101801.78;;;28.42;61.88
51460;BME280;37534;39.772;2.718;2023-05-08T11:55:19;101802.84;;;27.65;63.87
51460;BME280;37534;39.772;2.718;2023-05-08T11:57:44;101799.31;;;28.08;64.37
51460;BME280;37534;39.772;2.718;2023-05-08T12:00:10;101793.25;;;28.59;58.61
51460;BME280;37534;39.772;2.718;2023-05-08T12:02:37;101797.22;;;28.96;59.62
51460;BME280;37534;39.772;2.718;2023-05-08T12:05:04;101798.75;;;29.08;59.33
51460;BME280;37534;39.772;2.718;2023-05-08T12:07:30;101802.81;;;29.33;56.68
51460;BME280;37534;39.772;2.718;2023-05-08T12:09:55;101801.19;;;29.62;56.65
51460;BME280;37534;39.772;2.718;2023-05-08T12:12:22;101787.69;;;29.44;55.22
51460;BME280;37534;39.772;2.718;2023-05-08T12:14:49;101772.91;;;28.70;54.56
51460;BME280;37534;39.772;2.718;2023-05-08T12:17:16;101789.34;;;29.25;55.47
51460;BME280;37534;39.772;2.718;2023-05-08T12:19:42;101773.41;;;29.25;54.27
51460;BME280;37534;39.772;2.718;2023-05-08T12:22:08;101796.09;;;29.49;55.37
51460;BME280;37534;39.772;2.718;2023-05-08T12:24:34;101785.34;;;29.60;49.17
51460;BME280;37534;39.772;2.718;2023-05-08T12:26:59;101790.78;;;29.49;50.89
51460;BME280;37534;39.772;2.718;2023-05-08T12:29:25;101766.44;;;29.34;53.33
51460;BME280;37534;39.772;2.718;2023-05-08T12:31:51;101774.41;;;28.93;53.94
51460;BME280;37534;39.772;2.718;2023-05-08T12:34:17;101766.09;;;28.77;54.77
51460;BME280;37534;39.772;2.718;2023-05-08T12:36:43;101764.28;;;29.18;52.60
51460;BME280;37534;39.772;2.718;2023-05-08T12:39:13;101748.19;;;28.79;53.63
51460;BME280;37534;39.772;2.718;2023-05-08T12:44:25;101734.78;;;28.50;54.99
51460;BME280;37534;39.772;2.718;2023-05-08T12:46:55;101747.97;;;28.09;53.23
51460;BME280;37534;39.772;2.718;2023-05-08T12:49:28;101740.56;;;27.80;54.70
51460;BME280;37534;39.772;2.718;2023-05-08T12:52:04;101740.84;;;27.77;55.91
51460;BME280;37534;39.772;2.718;2023-05-08T12:54:35;101741.75;;;27.99;55.23
51460;BME280;37534;39.772;2.718;2023-05-08T12:57:12;101739.09;;;28.20;54.00
51460;BME280;37534;39.772;2.718;2023-05-08T12:59:38;101718.44;;;28.23;54.15
51460;BME280;37534;39.772;2.718;2023-05-08T13:02:11;101719.59;;;28.31;51.46
51460;BME280;37534;39.772;2.718;2023-05-08T13:04:37;101710.34;;;28.25;50.35
51460;BME280;37534;39.772;2.718;2023-05-08T13:07:03;101722.16;;;28.42;50.55
51460;BME280;37534;39.772;2.718;2023-05-08T13:09:29;101709.41;;;28.57;51.94
51460;BME280;37534;39.772;2.718;2023-05-08T13:11:55;101704.47;;;28.21;50.34
51460;BME280;37534;39.772;2.718;2023-05-08T13:14:20;101710.16;;;27.96;50.43
51460;BME280;37534;39.772;2.718;2023-05-08T13:16:46;101707.34;;;27.76;52.24
51460;BME280;37534;39.772;2.718;2023-05-08T13:19:12;101712.28;;;27.48;52.73
51460;BME280;37534;39.772;2.718;2023-05-08T13:21:40;101704.88;;;27.63;53.47
51460;BME280;37534;39.772;2.718;2023-05-08T13:24:06;101719.84;;;27.53;52.77
51460;BME280;37534;39.772;2.718;2023-05-08T13:26:31;101708.97;;;27.24;51.76
51460;BME280;37534;39.772;2.718;2023-05-08T13:28:57;101711.44;;;26.82;53.54
51460;BME280;37534;39.772;2.718;2023-05-08T13:31:23;101706.13;;;26.59;55.32
51460;BME280;37534;39.772;2.718;2023-05-08T13:33:48;101696.00;;;26.42;55.38
51460;BME280;37534;39.772;2.718;2023-05-08T13:36:14;101713.34;;;26.68;54.97
51460;BME280;37534;39.772;2.718;2023-05-08T13:38:39;101708.19;;;27.01;54.56
51460;BME280;37534;39.772;2.718;2023-05-08T13:41:05;101705.72;;;27.09;53.32